Superferry II — SWKV — position and weather

sailwx.info

Track history (hours):
 
Tides and Currents Weather Stations Pressure Air Temp Water Temp Dewpoint Dewpoint Depression Visibility Wind Speed Wind Dir Waves Ship Positions

Superferry II

Last reported at 2017-Jun-26 12:36 UTC. Time now 2017-Jun-26 19:04 UTC.
Position N 37°45' E 024°51'.

Length 122 m; draft 4.7 m.

Type: Passenger vessel. MMSI: 237001000.

Date/timePositionNaut miles runAvg speedWind from/ knotsBaromVisibWave heightAir tempDewpointWater temp
2017-Jun-26 12:36N 37°45' E 024°51'619.9
2017-Jun-26 12:19N 37°41' E 024°56'620.2
2017-Jun-26 12:00N 37°36' E 025°02'714.8
2017-Jun-26 11:30N 37°32' E 025°09'611.2
2017-Jun-26 11:00N 37°29' E 025°15'4 7.0
2017-Jun-26 10:30N 37°28' E 025°19'0 0.0
2017-Jun-26 10:00N 37°28' E 025°19'0 0.0
2017-Jun-26 09:30N 37°28' E 025°19'510.8
2017-Jun-26 09:00N 37°30' E 025°13'4 8.8
2017-Jun-26 08:30N 37°32' E 025°08'5616.6
2017-Jun-26 05:07N 37°60' E 024°07'320.0
2017-Jun-26 05:00N 38°01' E 024°04'2 0.3
2017-Jun-25 20:36N 38°01' E 024°01'2 8.3
2017-Jun-25 20:23N 38°01' E 024°03'3 0.9
2017-Jun-25 16:33N 37°60' E 024°07'119.9
2017-Jun-25 16:30N 38°00' E 024°06'38 9.9
2017-Jun-25 12:37N 37°45' E 024°51'220.1
2017-Jun-25 12:30N 37°43' E 024°53'1019.9
2017-Jun-25 12:00N 37°36' E 025°02'714.5
2017-Jun-25 11:31N 37°32' E 025°09'612.5
2017-Jun-25 11:01N 37°29' E 025°16'3 5.9
2017-Jun-25 10:30N 37°28' E 025°19'0 0.0
2017-Jun-25 10:00N 37°28' E 025°19'0 0.0
2017-Jun-25 09:30N 37°28' E 025°20'5 9.7
2017-Jun-25 09:00N 37°30' E 025°14'4 8.8
2017-Jun-25 08:31N 37°32' E 025°09'5716.8
2017-Jun-25 05:08N 37°60' E 024°07'219.8
2017-Jun-25 05:00N 38°01' E 024°04'2 0.2
2017-Jun-24 16:30N 38°01' E 024°01'4315.9
2017-Jun-24 13:47N 37°45' E 024°51'719.7
2017-Jun-24 13:25N 37°40' E 024°57'820.1
2017-Jun-24 13:01N 37°34' E 025°05'4 8.7
2017-Jun-24 12:30N 37°32' E 025°09'917.7
2017-Jun-24 12:00N 37°28' E 025°20'0 0.0
2017-Jun-24 11:30N 37°28' E 025°20'0 0.0
2017-Jun-24 11:00N 37°28' E 025°20'0 0.0
2017-Jun-24 10:30N 37°28' E 025°20'0 0.0
2017-Jun-24 10:00N 37°28' E 025°20'0 0.0
2017-Jun-24 09:30N 37°28' E 025°20'611.6
2017-Jun-24 09:00N 37°30' E 025°13'5 9.4
2017-Jun-24 08:31N 37°32' E 025°08'5616.6
2017-Jun-24 05:09N 37°60' E 024°07'319.8
2017-Jun-24 05:00N 38°01' E 024°03'2 0.2
2017-Jun-23 20:32N 38°01' E 024°01'0 0.8
2017-Jun-23 20:31N 38°01' E 024°01'5 1.4
2017-Jun-23 16:42N 37°60' E 024°07'419.7
2017-Jun-23 16:30N 38°01' E 024°02'4210.6
2017-Jun-23 12:36N 37°45' E 024°51'320.3
2017-Jun-23 12:28N 37°43' E 024°53'919.9
2017-Jun-23 12:00N 37°37' E 025°01'815.6
2017-Jun-23 11:31N 37°32' E 025°09'510.3
2017-Jun-23 11:00N 37°29' E 025°15'4 8.0
2017-Jun-23 10:30N 37°28' E 025°19'0 0.0
2017-Jun-23 10:00N 37°28' E 025°19'0 0.0
2017-Jun-23 09:30N 37°28' E 025°19'510.1
2017-Jun-23 09:00N 37°30' E 025°14'4 8.4
2017-Jun-23 08:31N 37°32' E 025°09'5616.8
2017-Jun-23 05:11N 37°60' E 024°07'420.0
2017-Jun-23 05:00N 38°01' E 024°03'2 0.1
2017-Jun-22 15:47N 38°01' E 024°01'0 0.2
2017-Jun-22 15:23N 38°01' E 024°01'4315.4
2017-Jun-22 12:36N 37°45' E 024°51'220.0
2017-Jun-22 12:29N 37°43' E 024°53'1020.0
2017-Jun-22 12:00N 37°37' E 025°01'815.3
2017-Jun-22 11:31N 37°32' E 025°09'611.0
2017-Jun-22 11:00N 37°29' E 025°15'4 7.3
2017-Jun-22 10:31N 37°28' E 025°19'0 0.0
2017-Jun-22 10:01N 37°28' E 025°19'0 0.0
2017-Jun-22 09:31N 37°28' E 025°19'5 9.1
2017-Jun-22 09:00N 37°29' E 025°14'5 9.2
2017-Jun-22 08:31N 37°32' E 025°09'5616.6
2017-Jun-22 05:10N 37°60' E 024°08'320.3
2017-Jun-22 05:00N 38°01' E 024°04'3 0.2
2017-Jun-21 15:22N 38°01' E 024°01'4315.4
2017-Jun-21 12:36N 37°45' E 024°51'220.0
2017-Jun-21 12:30N 37°44' E 024°52'1020.3
2017-Jun-21 12:00N 37°36' E 025°01'815.2
2017-Jun-21 11:30N 37°32' E 025°09'510.5
2017-Jun-21 11:00N 37°29' E 025°15'4 7.8
2017-Jun-21 10:30N 37°28' E 025°19'0 0.0
2017-Jun-21 10:00N 37°28' E 025°19'0 0.0
2017-Jun-21 09:30N 37°28' E 025°19'510.1
2017-Jun-21 09:00N 37°30' E 025°14'5 9.1
2017-Jun-21 08:30N 37°32' E 025°09'5616.6
2017-Jun-21 05:07N 37°60' E 024°07'219.7
2017-Jun-21 05:01N 38°01' E 024°04'3 0.2
2017-Jun-20 15:23N 38°01' E 024°01'4315.7
2017-Jun-20 12:40N 37°45' E 024°51'919.9
2017-Jun-20 12:12N 37°38' E 024°59'420.1
2017-Jun-20 12:00N 37°36' E 025°03'612.8
2017-Jun-20 11:30N 37°32' E 025°09'611.7
2017-Jun-20 11:00N 37°29' E 025°15'3 7.0
2017-Jun-20 10:31N 37°28' E 025°20'0 0.0
2017-Jun-20 10:00N 37°28' E 025°20'0 0.0
2017-Jun-20 09:31N 37°28' E 025°20'510.0
2017-Jun-20 09:00N 37°30' E 025°14'4 8.6
2017-Jun-20 08:31N 37°32' E 025°09'19 1.0
2017-Jun-19 12:41N 37°45' E 024°51'920.1
2017-Jun-19 12:13N 37°38' E 024°59'419.9
2017-Jun-19 12:00N 37°35' E 025°03'612.0
2017-Jun-19 11:30N 37°32' E 025°09'612.6
2017-Jun-19 11:00N 37°29' E 025°16'3 5.9
2017-Jun-19 10:31N 37°28' E 025°19'0 0.0
2017-Jun-19 10:00N 37°28' E 025°19'0 0.0
2017-Jun-19 09:31N 37°28' E 025°19'5 9.8
2017-Jun-19 09:01N 37°29' E 025°14'4 8.9
2017-Jun-19 08:30N 37°32' E 025°09'5616.7
2017-Jun-19 05:09N 37°60' E 024°07'320.1
2017-Jun-19 05:00N 38°01' E 024°04'3 0.3
2017-Jun-18 20:23N 38°01' E 024°01'7 1.8
2017-Jun-18 16:38N 37°60' E 024°09'320.1
2017-Jun-18 16:31N 38°00' E 024°06'4 3.9
2017-Jun-18 15:26N 38°01' E 024°01'4415.2
2017-Jun-18 12:34N 37°44' E 024°52'719.8
2017-Jun-18 12:13N 37°39' E 024°58'419.6
2017-Jun-18 12:00N 37°36' E 025°02'714.8
2017-Jun-18 11:30N 37°32' E 025°09'510.7
2017-Jun-18 11:00N 37°29' E 025°15'4 7.6
2017-Jun-18 10:30N 37°28' E 025°19'0 0.0
2017-Jun-18 10:00N 37°28' E 025°19'0 0.0
2017-Jun-18 09:30N 37°28' E 025°19'510.3
2017-Jun-18 09:00N 37°30' E 025°13'4 8.4
2017-Jun-18 08:30N 37°32' E 025°09'5716.8
2017-Jun-18 05:07N 38°00' E 024°06'219.6
2017-Jun-18 05:00N 38°01' E 024°04'2 0.2
2017-Jun-17 16:26N 38°01' E 024°01'4316.2
2017-Jun-17 13:47N 37°45' E 024°51'820.5
2017-Jun-17 13:23N 37°39' E 024°58'820.3
2017-Jun-17 13:00N 37°34' E 025°05'4 9.0
2017-Jun-17 12:30N 37°32' E 025°10'917.1
2017-Jun-17 12:01N 37°28' E 025°19'0 0.0
2017-Jun-17 11:30N 37°28' E 025°19'0 0.0
2017-Jun-17 11:00N 37°28' E 025°19'0 0.0
2017-Jun-17 10:31N 37°28' E 025°19'0 0.0
2017-Jun-17 10:00N 37°28' E 025°19'0 0.0
2017-Jun-17 09:30N 37°28' E 025°19'611.6
2017-Jun-17 09:00N 37°30' E 025°13'4 7.9
2017-Jun-17 08:30N 37°32' E 025°08'5616.6
2017-Jun-17 05:08N 37°60' E 024°07'319.9
2017-Jun-17 05:00N 38°01' E 024°03'2 0.3
2017-Jun-16 20:23N 38°01' E 024°01'3 0.8
2017-Jun-16 16:30N 38°00' E 024°05'1 1.2
2017-Jun-16 15:15N 38°01' E 024°03'  
Track history (hours):
 
Tides and Currents Weather Stations Pressure Air Temp Water Temp Dewpoint Dewpoint Depression Visibility Wind Speed Wind Dir Waves Ship Positions

Superferry II

Last reported at 2017-Jun-26 12:36 UTC. Time now 2017-Jun-26 19:04 UTC.
Position N 37°45' E 024°51'.

Length 122 m; draft 4.7 m.

Type: Passenger vessel. MMSI: 237001000.

Date/timePositionNaut miles runAvg speedWind from/ knotsBaromVisibWave heightAir tempDewpointWater temp
2017-Jun-26 12:36N 37°45' E 024°51'619.9
2017-Jun-26 12:19N 37°41' E 024°56'620.2
2017-Jun-26 12:00N 37°36' E 025°02'714.8
2017-Jun-26 11:30N 37°32' E 025°09'611.2
2017-Jun-26 11:00N 37°29' E 025°15'4 7.0
2017-Jun-26 10:30N 37°28' E 025°19'0 0.0
2017-Jun-26 10:00N 37°28' E 025°19'0 0.0
2017-Jun-26 09:30N 37°28' E 025°19'510.8
2017-Jun-26 09:00N 37°30' E 025°13'4 8.8
2017-Jun-26 08:30N 37°32' E 025°08'5616.6
2017-Jun-26 05:07N 37°60' E 024°07'320.0
2017-Jun-26 05:00N 38°01' E 024°04'2 0.3
2017-Jun-25 20:36N 38°01' E 024°01'2 8.3
2017-Jun-25 20:23N 38°01' E 024°03'3 0.9
2017-Jun-25 16:33N 37°60' E 024°07'119.9
2017-Jun-25 16:30N 38°00' E 024°06'38 9.9
2017-Jun-25 12:37N 37°45' E 024°51'220.1
2017-Jun-25 12:30N 37°43' E 024°53'1019.9
2017-Jun-25 12:00N 37°36' E 025°02'714.5
2017-Jun-25 11:31N 37°32' E 025°09'612.5
2017-Jun-25 11:01N 37°29' E 025°16'3 5.9
2017-Jun-25 10:30N 37°28' E 025°19'0 0.0
2017-Jun-25 10:00N 37°28' E 025°19'0 0.0
2017-Jun-25 09:30N 37°28' E 025°20'5 9.7
2017-Jun-25 09:00N 37°30' E 025°14'4 8.8
2017-Jun-25 08:31N 37°32' E 025°09'5716.8
2017-Jun-25 05:08N 37°60' E 024°07'219.8
2017-Jun-25 05:00N 38°01' E 024°04'2 0.2
2017-Jun-24 16:30N 38°01' E 024°01'4315.9
2017-Jun-24 13:47N 37°45' E 024°51'719.7
2017-Jun-24 13:25N 37°40' E 024°57'820.1
2017-Jun-24 13:01N 37°34' E 025°05'4 8.7
2017-Jun-24 12:30N 37°32' E 025°09'917.7
2017-Jun-24 12:00N 37°28' E 025°20'0 0.0
2017-Jun-24 11:30N 37°28' E 025°20'0 0.0
2017-Jun-24 11:00N 37°28' E 025°20'0 0.0
2017-Jun-24 10:30N 37°28' E 025°20'0 0.0
2017-Jun-24 10:00N 37°28' E 025°20'0 0.0
2017-Jun-24 09:30N 37°28' E 025°20'611.6
2017-Jun-24 09:00N 37°30' E 025°13'5 9.4
2017-Jun-24 08:31N 37°32' E 025°08'5616.6
2017-Jun-24 05:09N 37°60' E 024°07'319.8
2017-Jun-24 05:00N 38°01' E 024°03'2 0.2
2017-Jun-23 20:32N 38°01' E 024°01'0 0.8
2017-Jun-23 20:31N 38°01' E 024°01'5 1.4
2017-Jun-23 16:42N 37°60' E 024°07'419.7
2017-Jun-23 16:30N 38°01' E 024°02'4210.6
2017-Jun-23 12:36N 37°45' E 024°51'320.3
2017-Jun-23 12:28N 37°43' E 024°53'919.9
2017-Jun-23 12:00N 37°37' E 025°01'815.6
2017-Jun-23 11:31N 37°32' E 025°09'510.3
2017-Jun-23 11:00N 37°29' E 025°15'4 8.0
2017-Jun-23 10:30N 37°28' E 025°19'0 0.0
2017-Jun-23 10:00N 37°28' E 025°19'0 0.0
2017-Jun-23 09:30N 37°28' E 025°19'510.1
2017-Jun-23 09:00N 37°30' E 025°14'4 8.4
2017-Jun-23 08:31N 37°32' E 025°09'5616.8
2017-Jun-23 05:11N 37°60' E 024°07'420.0
2017-Jun-23 05:00N 38°01' E 024°03'2 0.1
2017-Jun-22 15:47N 38°01' E 024°01'0 0.2
2017-Jun-22 15:23N 38°01' E 024°01'4315.4
2017-Jun-22 12:36N 37°45' E 024°51'220.0
2017-Jun-22 12:29N 37°43' E 024°53'1020.0
2017-Jun-22 12:00N 37°37' E 025°01'815.3
2017-Jun-22 11:31N 37°32' E 025°09'611.0
2017-Jun-22 11:00N 37°29' E 025°15'4 7.3
2017-Jun-22 10:31N 37°28' E 025°19'0 0.0
2017-Jun-22 10:01N 37°28' E 025°19'0 0.0
2017-Jun-22 09:31N 37°28' E 025°19'5 9.1
2017-Jun-22 09:00N 37°29' E 025°14'5 9.2
2017-Jun-22 08:31N 37°32' E 025°09'5616.6
2017-Jun-22 05:10N 37°60' E 024°08'320.3
2017-Jun-22 05:00N 38°01' E 024°04'3 0.2
2017-Jun-21 15:22N 38°01' E 024°01'4315.4
2017-Jun-21 12:36N 37°45' E 024°51'220.0
2017-Jun-21 12:30N 37°44' E 024°52'1020.3
2017-Jun-21 12:00N 37°36' E 025°01'815.2
2017-Jun-21 11:30N 37°32' E 025°09'510.5
2017-Jun-21 11:00N 37°29' E 025°15'4 7.8
2017-Jun-21 10:30N 37°28' E 025°19'0 0.0
2017-Jun-21 10:00N 37°28' E 025°19'0 0.0
2017-Jun-21 09:30N 37°28' E 025°19'510.1
2017-Jun-21 09:00N 37°30' E 025°14'5 9.1
2017-Jun-21 08:30N 37°32' E 025°09'5616.6
2017-Jun-21 05:07N 37°60' E 024°07'219.7
2017-Jun-21 05:01N 38°01' E 024°04'3 0.2
2017-Jun-20 15:23N 38°01' E 024°01'4315.7
2017-Jun-20 12:40N 37°45' E 024°51'919.9
2017-Jun-20 12:12N 37°38' E 024°59'420.1
2017-Jun-20 12:00N 37°36' E 025°03'612.8
2017-Jun-20 11:30N 37°32' E 025°09'611.7
2017-Jun-20 11:00N 37°29' E 025°15'3 7.0
2017-Jun-20 10:31N 37°28' E 025°20'0 0.0
2017-Jun-20 10:00N 37°28' E 025°20'0 0.0
2017-Jun-20 09:31N 37°28' E 025°20'510.0
2017-Jun-20 09:00N 37°30' E 025°14'4 8.6
2017-Jun-20 08:31N 37°32' E 025°09'19 1.0
2017-Jun-19 12:41N 37°45' E 024°51'920.1
2017-Jun-19 12:13N 37°38' E 024°59'419.9
2017-Jun-19 12:00N 37°35' E 025°03'612.0
2017-Jun-19 11:30N 37°32' E 025°09'612.6
2017-Jun-19 11:00N 37°29' E 025°16'3 5.9
2017-Jun-19 10:31N 37°28' E 025°19'0 0.0
2017-Jun-19 10:00N 37°28' E 025°19'0 0.0
2017-Jun-19 09:31N 37°28' E 025°19'5 9.8
2017-Jun-19 09:01N 37°29' E 025°14'4 8.9
2017-Jun-19 08:30N 37°32' E 025°09'5616.7
2017-Jun-19 05:09N 37°60' E 024°07'320.1
2017-Jun-19 05:00N 38°01' E 024°04'3 0.3
2017-Jun-18 20:23N 38°01' E 024°01'7 1.8
2017-Jun-18 16:38N 37°60' E 024°09'320.1
2017-Jun-18 16:31N 38°00' E 024°06'4 3.9
2017-Jun-18 15:26N 38°01' E 024°01'4415.2
2017-Jun-18 12:34N 37°44' E 024°52'719.8
2017-Jun-18 12:13N 37°39' E 024°58'419.6
2017-Jun-18 12:00N 37°36' E 025°02'714.8
2017-Jun-18 11:30N 37°32' E 025°09'510.7
2017-Jun-18 11:00N 37°29' E 025°15'4 7.6
2017-Jun-18 10:30N 37°28' E 025°19'0 0.0
2017-Jun-18 10:00N 37°28' E 025°19'0 0.0
2017-Jun-18 09:30N 37°28' E 025°19'510.3
2017-Jun-18 09:00N 37°30' E 025°13'4 8.4
2017-Jun-18 08:30N 37°32' E 025°09'5716.8
2017-Jun-18 05:07N 38°00' E 024°06'219.6
2017-Jun-18 05:00N 38°01' E 024°04'2 0.2
2017-Jun-17 16:26N 38°01' E 024°01'4316.2
2017-Jun-17 13:47N 37°45' E 024°51'820.5
2017-Jun-17 13:23N 37°39' E 024°58'820.3
2017-Jun-17 13:00N 37°34' E 025°05'4 9.0
2017-Jun-17 12:30N 37°32' E 025°10'917.1
2017-Jun-17 12:01N 37°28' E 025°19'0 0.0
2017-Jun-17 11:30N 37°28' E 025°19'0 0.0
2017-Jun-17 11:00N 37°28' E 025°19'0 0.0
2017-Jun-17 10:31N 37°28' E 025°19'0 0.0
2017-Jun-17 10:00N 37°28' E 025°19'0 0.0
2017-Jun-17 09:30N 37°28' E 025°19'611.6
2017-Jun-17 09:00N 37°30' E 025°13'4 7.9
2017-Jun-17 08:30N 37°32' E 025°08'5616.6
2017-Jun-17 05:08N 37°60' E 024°07'319.9
2017-Jun-17 05:00N 38°01' E 024°03'2 0.3
2017-Jun-16 20:23N 38°01' E 024°01'3 0.8
2017-Jun-16 16:30N 38°00' E 024°05'1 1.2
2017-Jun-16 15:15N 38°01' E 024°03'  

Dump ship's entire track history